sensor_id;sensor_type;location;lat;lon;timestamp;pressure;altitude;pressure_sealevel;temperature
70435;BMP280;57876;47.792;12.960;2022-12-29T00:00:45;96852.72;;;17.68
70435;BMP280;57876;47.792;12.960;2022-12-29T00:03:10;96852.53;;;17.66
70435;BMP280;57876;47.792;12.960;2022-12-29T00:05:34;96861.50;;;17.66
70435;BMP280;57876;47.792;12.960;2022-12-29T00:07:58;96853.13;;;17.64
70435;BMP280;57876;47.792;12.960;2022-12-29T00:10:23;96845.63;;;17.65
70435;BMP280;57876;47.792;12.960;2022-12-29T00:12:47;96845.47;;;17.63
70435;BMP280;57876;47.792;12.960;2022-12-29T00:15:30;96828.34;;;17.62
70435;BMP280;57876;47.792;12.960;2022-12-29T00:18:03;96831.63;;;17.61
70435;BMP280;57876;47.792;12.960;2022-12-29T00:20:28;96831.47;;;17.59
70435;BMP280;57876;47.792;12.960;2022-12-29T00:23:11;96826.72;;;17.59
70435;BMP280;57876;47.792;12.960;2022-12-29T00:25:54;96823.13;;;17.57
70435;BMP280;57876;47.792;12.960;2022-12-29T00:28:38;96818.22;;;17.55
70435;BMP280;57876;47.792;12.960;2022-12-29T00:31:21;96814.03;;;17.54
70435;BMP280;57876;47.792;12.960;2022-12-29T00:34:04;96817.50;;;17.55
70435;BMP280;57876;47.792;12.960;2022-12-29T00:36:46;96816.63;;;17.52
70435;BMP280;57876;47.792;12.960;2022-12-29T00:39:16;96824.09;;;17.52
70435;BMP280;57876;47.792;12.960;2022-12-29T00:42:08;96824.09;;;17.52
70435;BMP280;57876;47.792;12.960;2022-12-29T00:45:01;96821.19;;;17.50
70435;BMP280;57876;47.792;12.960;2022-12-29T00:47:26;96814.28;;;17.49
70435;BMP280;57876;47.792;12.960;2022-12-29T00:49:50;96812.13;;;17.47
70435;BMP280;57876;47.792;12.960;2022-12-29T00:52:15;96803.19;;;17.47
70435;BMP280;57876;47.792;12.960;2022-12-29T00:54:40;96806.66;;;17.47
70435;BMP280;57876;47.792;12.960;2022-12-29T00:57:06;96809.19;;;17.45
70435;BMP280;57876;47.792;12.960;2022-12-29T00:59:31;96805.00;;;17.44
70435;BMP280;57876;47.792;12.960;2022-12-29T01:01:57;96801.59;;;17.44
70435;BMP280;57876;47.792;12.960;2022-12-29T01:04:23;96805.63;;;17.43
70435;BMP280;57876;47.792;12.960;2022-12-29T01:06:49;96803.59;;;17.43
70435;BMP280;57876;47.792;12.960;2022-12-29T01:09:13;96804.16;;;17.42
70435;BMP280;57876;47.792;12.960;2022-12-29T01:11:56;96811.63;;;17.41
70435;BMP280;57876;47.792;12.960;2022-12-29T01:14:21;96799.97;;;17.41
70435;BMP280;57876;47.792;12.960;2022-12-29T01:16:46;96804.00;;;17.40
70435;BMP280;57876;47.792;12.960;2022-12-29T01:19:11;96808.03;;;17.39
70435;BMP280;57876;47.792;12.960;2022-12-29T01:21:35;96806.00;;;17.39
70435;BMP280;57876;47.792;12.960;2022-12-29T01:24:00;96805.31;;;17.39
70435;BMP280;57876;47.792;12.960;2022-12-29T01:26:24;96807.84;;;17.37
70435;BMP280;57876;47.792;12.960;2022-12-29T01:28:48;96816.06;;;17.37
70435;BMP280;57876;47.792;12.960;2022-12-29T01:31:14;96811.88;;;17.36
70435;BMP280;57876;47.792;12.960;2022-12-29T01:33:39;96802.97;;;17.35
70435;BMP280;57876;47.792;12.960;2022-12-29T01:36:06;96800.22;;;17.35
70435;BMP280;57876;47.792;12.960;2022-12-29T01:38:31;96795.31;;;17.34
70435;BMP280;57876;47.792;12.960;2022-12-29T01:40:56;96797.47;;;17.35
70435;BMP280;57876;47.792;12.960;2022-12-29T01:43:20;96804.09;;;17.32
70435;BMP280;57876;47.792;12.960;2022-12-29T01:45:50;96798.63;;;17.32
70435;BMP280;57876;47.792;12.960;2022-12-29T01:48:16;96797.19;;;17.31
70435;BMP280;57876;47.792;12.960;2022-12-29T01:50:44;96796.44;;;17.31
70435;BMP280;57876;47.792;12.960;2022-12-29T01:53:14;96810.13;;;17.31
70435;BMP280;57876;47.792;12.960;2022-12-29T01:55:46;96790.84;;;17.29
70435;BMP280;57876;47.792;12.960;2022-12-29T01:58:13;96801.78;;;17.29
70435;BMP280;57876;47.792;12.960;2022-12-29T02:00:38;96801.03;;;17.28
70435;BMP280;57876;47.792;12.960;2022-12-29T02:03:03;96800.31;;;17.28
70435;BMP280;57876;47.792;12.960;2022-12-29T02:05:47;96801.59;;;17.27
70435;BMP280;57876;47.792;12.960;2022-12-29T02:08:13;96798.13;;;17.26
70435;BMP280;57876;47.792;12.960;2022-12-29T02:10:38;96794.13;;;17.27
70435;BMP280;57876;47.792;12.960;2022-12-29T02:13:03;96793.25;;;17.25
70435;BMP280;57876;47.792;12.960;2022-12-29T02:32:30;96781.97;;;17.21
70435;BMP280;57876;47.792;12.960;2022-12-29T02:35:08;96766.16;;;17.20
70435;BMP280;57876;47.792;12.960;2022-12-29T02:40:31;96779.84;;;17.20
70435;BMP280;57876;47.792;12.960;2022-12-29T02:48:23;96778.22;;;17.17
70435;BMP280;57876;47.792;12.960;2022-12-29T02:53:23;96774.00;;;17.16
70435;BMP280;57876;47.792;12.960;2022-12-29T02:56:08;96787.00;;;17.15
70435;BMP280;57876;47.792;12.960;2022-12-29T02:58:32;96778.06;;;17.15
70435;BMP280;57876;47.792;12.960;2022-12-29T03:11:32;96770.41;;;17.13
70435;BMP280;57876;47.792;12.960;2022-12-29T03:14:28;96779.16;;;17.12
70435;BMP280;57876;47.792;12.960;2022-12-29T03:17:24;96769.50;;;17.11
70435;BMP280;57876;47.792;12.960;2022-12-29T03:19:51;96769.50;;;17.11
70435;BMP280;57876;47.792;12.960;2022-12-29T03:22:22;96770.25;;;17.11
70435;BMP280;57876;47.792;12.960;2022-12-29T03:25:05;96762.63;;;17.10
70435;BMP280;57876;47.792;12.960;2022-12-29T03:27:36;96756.44;;;17.09
70435;BMP280;57876;47.792;12.960;2022-12-29T03:30:04;96777.56;;;17.09
70435;BMP280;57876;47.792;12.960;2022-12-29T03:32:36;96763.91;;;17.09
70435;BMP280;57876;47.792;12.960;2022-12-29T03:35:03;96765.19;;;17.08
70435;BMP280;57876;47.792;12.960;2022-12-29T03:37:35;96769.91;;;17.07
70435;BMP280;57876;47.792;12.960;2022-12-29T03:40:01;96763.16;;;17.08
70435;BMP280;57876;47.792;12.960;2022-12-29T03:42:27;96758.97;;;17.07
70435;BMP280;57876;47.792;12.960;2022-12-29T03:44:55;96757.53;;;17.06
70435;BMP280;57876;47.792;12.960;2022-12-29T03:47:20;96754.13;;;17.06
70435;BMP280;57876;47.792;12.960;2022-12-29T03:49:45;96756.13;;;17.05
70435;BMP280;57876;47.792;12.960;2022-12-29T03:52:09;96755.41;;;17.05
70435;BMP280;57876;47.792;12.960;2022-12-29T03:54:34;96760.88;;;17.05
70435;BMP280;57876;47.792;12.960;2022-12-29T03:56:58;96751.22;;;17.04
70435;BMP280;57876;47.792;12.960;2022-12-29T03:59:22;96745.00;;;17.03
70435;BMP280;57876;47.792;12.960;2022-12-29T04:01:47;96747.03;;;17.03
70435;BMP280;57876;47.792;12.960;2022-12-29T04:04:11;96751.94;;;17.04
70435;BMP280;57876;47.792;12.960;2022-12-29T04:06:36;96744.84;;;17.01
70435;BMP280;57876;47.792;12.960;2022-12-29T04:09:00;96749.78;;;17.03
70435;BMP280;57876;47.792;12.960;2022-12-29T04:11:25;96751.06;;;17.02
70435;BMP280;57876;47.792;12.960;2022-12-29T04:13:49;96749.59;;;17.01
70435;BMP280;57876;47.792;12.960;2022-12-29T04:16:14;96743.41;;;17.00
70435;BMP280;57876;47.792;12.960;2022-12-29T04:18:38;96745.41;;;17.00
70435;BMP280;57876;47.792;12.960;2022-12-29T04:21:03;96739.94;;;17.00
70435;BMP280;57876;47.792;12.960;2022-12-29T04:23:29;96751.44;;;16.98
70435;BMP280;57876;47.792;12.960;2022-12-29T04:25:54;96743.25;;;16.98
70435;BMP280;57876;47.792;12.960;2022-12-29T04:28:19;96746.69;;;16.99
70435;BMP280;57876;47.792;12.960;2022-12-29T04:30:43;96747.97;;;16.98
70435;BMP280;57876;47.792;12.960;2022-12-29T04:33:08;96740.53;;;16.98
70435;BMP280;57876;47.792;12.960;2022-12-29T04:35:32;96741.06;;;16.97
70435;BMP280;57876;47.792;12.960;2022-12-29T04:37:57;96747.97;;;16.98
70435;BMP280;57876;47.792;12.960;2022-12-29T04:40:21;96746.53;;;16.97
70435;BMP280;57876;47.792;12.960;2022-12-29T04:42:45;96745.13;;;16.96
70435;BMP280;57876;47.792;12.960;2022-12-29T04:45:10;96758.06;;;16.95
70435;BMP280;57876;47.792;12.960;2022-12-29T04:47:34;96760.06;;;16.95
70435;BMP280;57876;47.792;12.960;2022-12-29T04:49:59;96758.06;;;16.95
70435;BMP280;57876;47.792;12.960;2022-12-29T04:52:23;96749.13;;;16.95
70435;BMP280;57876;47.792;12.960;2022-12-29T04:54:47;96762.78;;;16.95
70435;BMP280;57876;47.792;12.960;2022-12-29T04:57:12;96751.84;;;16.95
70435;BMP280;57876;47.792;12.960;2022-12-29T04:59:36;96757.31;;;16.95
70435;BMP280;57876;47.792;12.960;2022-12-29T05:02:00;96753.16;;;16.94
70435;BMP280;57876;47.792;12.960;2022-12-29T05:04:25;96759.34;;;16.94
70435;BMP280;57876;47.792;12.960;2022-12-29T05:06:49;96755.88;;;16.94
70435;BMP280;57876;47.792;12.960;2022-12-29T05:09:14;96760.59;;;16.93
70435;BMP280;57876;47.792;12.960;2022-12-29T05:11:38;96760.59;;;16.93
70435;BMP280;57876;47.792;12.960;2022-12-29T05:14:02;96770.81;;;16.93
70435;BMP280;57876;47.792;12.960;2022-12-29T05:16:27;96759.88;;;16.93
70435;BMP280;57876;47.792;12.960;2022-12-29T05:18:51;96765.34;;;16.93
70435;BMP280;57876;47.792;12.960;2022-12-29T05:21:15;96761.16;;;16.92
70435;BMP280;57876;47.792;12.960;2022-12-29T05:23:40;96761.16;;;16.92
70435;BMP280;57876;47.792;12.960;2022-12-29T05:26:04;96756.41;;;16.92
70435;BMP280;57876;47.792;12.960;2022-12-29T05:28:28;96763.19;;;16.91
70435;BMP280;57876;47.792;12.960;2022-12-29T05:30:53;96763.19;;;16.91
70435;BMP280;57876;47.792;12.960;2022-12-29T05:33:18;96763.19;;;16.91
70435;BMP280;57876;47.792;12.960;2022-12-29T05:35:43;96765.34;;;16.93
70435;BMP280;57876;47.792;12.960;2022-12-29T05:38:08;96755.13;;;16.93
70435;BMP280;57876;47.792;12.960;2022-12-29T05:40:32;96762.94;;;16.97
70435;BMP280;57876;47.792;12.960;2022-12-29T05:42:56;96763.97;;;17.01
70435;BMP280;57876;47.792;12.960;2022-12-29T05:45:21;96756.44;;;17.09
70435;BMP280;57876;47.792;12.960;2022-12-29T05:47:46;96755.06;;;17.18
70435;BMP280;57876;47.792;12.960;2022-12-29T05:50:10;96757.72;;;17.25
70435;BMP280;57876;47.792;12.960;2022-12-29T05:52:34;96759.06;;;17.33
70435;BMP280;57876;47.792;12.960;2022-12-29T05:54:59;96758.22;;;17.40
70435;BMP280;57876;47.792;12.960;2022-12-29T05:57:23;96766.47;;;17.50
70435;BMP280;57876;47.792;12.960;2022-12-29T05:59:47;96762.38;;;17.58
70435;BMP280;57876;47.792;12.960;2022-12-29T06:02:12;96763.00;;;17.66
70435;BMP280;57876;47.792;12.960;2022-12-29T06:04:36;96755.97;;;17.73
70435;BMP280;57876;47.792;12.960;2022-12-29T06:07:01;96760.59;;;17.80
70435;BMP280;57876;47.792;12.960;2022-12-29T06:09:25;96760.91;;;17.84
70435;BMP280;57876;47.792;12.960;2022-12-29T06:11:49;96755.16;;;17.89
70435;BMP280;57876;47.792;12.960;2022-12-29T06:14:14;96752.00;;;17.92
70435;BMP280;57876;47.792;12.960;2022-12-29T06:16:38;96741.22;;;17.94
70435;BMP280;57876;47.792;12.960;2022-12-29T06:19:03;96729.69;;;17.96
70435;BMP280;57876;47.792;12.960;2022-12-29T06:21:27;96730.41;;;17.96
70435;BMP280;57876;47.792;12.960;2022-12-29T06:23:51;96733.88;;;17.97
70435;BMP280;57876;47.792;12.960;2022-12-29T06:26:16;96741.34;;;17.96
70435;BMP280;57876;47.792;12.960;2022-12-29T06:28:40;96741.50;;;17.98
70435;BMP280;57876;47.792;12.960;2022-12-29T06:31:09;96730.16;;;18.02
70435;BMP280;57876;47.792;12.960;2022-12-29T06:33:39;96730.44;;;18.06
70435;BMP280;57876;47.792;12.960;2022-12-29T06:36:03;96719.66;;;18.08
70435;BMP280;57876;47.792;12.960;2022-12-29T06:38:28;96719.22;;;18.11
70435;BMP280;57876;47.792;12.960;2022-12-29T06:40:52;96712.47;;;18.12
70435;BMP280;57876;47.792;12.960;2022-12-29T06:43:17;96722.84;;;18.14
70435;BMP280;57876;47.792;12.960;2022-12-29T06:45:41;96722.28;;;18.15
70435;BMP280;57876;47.792;12.960;2022-12-29T06:48:06;96727.16;;;18.17
70435;BMP280;57876;47.792;12.960;2022-12-29T06:50:31;96713.59;;;18.19
70435;BMP280;57876;47.792;12.960;2022-12-29T06:52:55;96712.50;;;18.22
70435;BMP280;57876;47.792;12.960;2022-12-29T06:55:19;96713.94;;;18.23
70435;BMP280;57876;47.792;12.960;2022-12-29T06:57:45;96710.06;;;18.26
70435;BMP280;57876;47.792;12.960;2022-12-29T07:00:09;96706.72;;;18.27
70435;BMP280;57876;47.792;12.960;2022-12-29T07:02:34;96715.69;;;18.28
70435;BMP280;57876;47.792;12.960;2022-12-29T07:04:58;96724.56;;;18.28
70435;BMP280;57876;47.792;12.960;2022-12-29T07:07:23;96725.31;;;18.29
70435;BMP280;57876;47.792;12.960;2022-12-29T07:09:47;96726.78;;;18.30
70435;BMP280;57876;47.792;12.960;2022-12-29T07:12:12;96720.41;;;18.27
70435;BMP280;57876;47.792;12.960;2022-12-29T07:14:36;96717.69;;;18.27
70435;BMP280;57876;47.792;12.960;2022-12-29T07:17:01;96723.91;;;18.28
70435;BMP280;57876;47.792;12.960;2022-12-29T07:19:25;96721.84;;;18.28
70435;BMP280;57876;47.792;12.960;2022-12-29T07:21:49;96726.63;;;18.28
70435;BMP280;57876;47.792;12.960;2022-12-29T07:24:14;96722.59;;;18.29
70435;BMP280;57876;47.792;12.960;2022-12-29T07:26:38;96730.94;;;18.31
70435;BMP280;57876;47.792;12.960;2022-12-29T07:29:03;96721.44;;;18.32
70435;BMP280;57876;47.792;12.960;2022-12-29T07:31:28;96717.38;;;18.33
70435;BMP280;57876;47.792;12.960;2022-12-29T07:33:52;96729.09;;;18.33
70435;BMP280;57876;47.792;12.960;2022-12-29T07:36:18;96724.31;;;18.34
70435;BMP280;57876;47.792;12.960;2022-12-29T07:38:43;96724.47;;;18.36
70435;BMP280;57876;47.792;12.960;2022-12-29T07:41:07;96731.41;;;18.37
70435;BMP280;57876;47.792;12.960;2022-12-29T07:43:32;96741.63;;;18.36
70435;BMP280;57876;47.792;12.960;2022-12-29T07:45:56;96734.28;;;18.39
70435;BMP280;57876;47.792;12.960;2022-12-29T07:48:21;96741.22;;;18.40
70435;BMP280;57876;47.792;12.960;2022-12-29T07:50:45;96736.56;;;18.42
70435;BMP280;57876;47.792;12.960;2022-12-29T07:53:09;96731.09;;;18.42
70435;BMP280;57876;47.792;12.960;2022-12-29T07:55:34;96740.22;;;18.45
70435;BMP280;57876;47.792;12.960;2022-12-29T07:57:58;96736.75;;;18.44
70435;BMP280;57876;47.792;12.960;2022-12-29T08:00:23;96732.53;;;18.43
70435;BMP280;57876;47.792;12.960;2022-12-29T08:02:47;96725.06;;;18.44
70435;BMP280;57876;47.792;12.960;2022-12-29T08:05:12;96727.06;;;18.43
70435;BMP280;57876;47.792;12.960;2022-12-29T08:07:36;96731.84;;;18.43
70435;BMP280;57876;47.792;12.960;2022-12-29T08:10:01;96746.25;;;18.43
70435;BMP280;57876;47.792;12.960;2022-12-29T08:12:25;96744.25;;;18.44
70435;BMP280;57876;47.792;12.960;2022-12-29T08:14:50;96742.94;;;18.45
70435;BMP280;57876;47.792;12.960;2022-12-29T08:17:14;96742.38;;;18.46
70435;BMP280;57876;47.792;12.960;2022-12-29T08:19:39;96745.09;;;18.46
70435;BMP280;57876;47.792;12.960;2022-12-29T08:22:04;96745.25;;;18.48
70435;BMP280;57876;47.792;12.960;2022-12-29T08:24:28;96750.75;;;18.48
70435;BMP280;57876;47.792;12.960;2022-12-29T08:26:52;96751.44;;;18.49
70435;BMP280;57876;47.792;12.960;2022-12-29T08:29:17;96748.16;;;18.50
70435;BMP280;57876;47.792;12.960;2022-12-29T08:31:41;96745.41;;;18.50
70435;BMP280;57876;47.792;12.960;2022-12-29T08:34:06;96748.28;;;18.52
70435;BMP280;57876;47.792;12.960;2022-12-29T08:36:30;96740.81;;;18.53
70435;BMP280;57876;47.792;12.960;2022-12-29T08:38:54;96740.81;;;18.53
70435;BMP280;57876;47.792;12.960;2022-12-29T08:41:19;96741.50;;;18.53
70435;BMP280;57876;47.792;12.960;2022-12-29T08:43:48;96748.44;;;18.54
70435;BMP280;57876;47.792;12.960;2022-12-29T08:46:13;96745.69;;;18.54
70435;BMP280;57876;47.792;12.960;2022-12-29T08:48:37;96751.19;;;18.54
70435;BMP280;57876;47.792;12.960;2022-12-29T08:51:02;96758.09;;;18.55
70435;BMP280;57876;47.792;12.960;2022-12-29T08:53:26;96753.91;;;18.54
70435;BMP280;57876;47.792;12.960;2022-12-29T08:55:58;96753.22;;;18.54
70435;BMP280;57876;47.792;12.960;2022-12-29T08:58:23;96757.25;;;18.53
70435;BMP280;57876;47.792;12.960;2022-12-29T09:00:48;96761.97;;;18.52
70435;BMP280;57876;47.792;12.960;2022-12-29T09:03:12;96773.69;;;18.53
70435;BMP280;57876;47.792;12.960;2022-12-29T09:05:37;96768.03;;;18.51
70435;BMP280;57876;47.792;12.960;2022-12-29T09:08:01;96770.19;;;18.52
70435;BMP280;57876;47.792;12.960;2022-12-29T09:10:25;96777.13;;;18.53
70435;BMP280;57876;47.792;12.960;2022-12-29T09:12:50;96768.19;;;18.53
70435;BMP280;57876;47.792;12.960;2022-12-29T09:15:14;96773.69;;;18.53
70435;BMP280;57876;47.792;12.960;2022-12-29T09:17:39;96770.94;;;18.53
70435;BMP280;57876;47.792;12.960;2022-12-29T09:20:15;96769.66;;;18.54
70435;BMP280;57876;47.792;12.960;2022-12-29T09:22:40;96764.88;;;18.54
70435;BMP280;57876;47.792;12.960;2022-12-29T09:25:05;96776.56;;;18.55
70435;BMP280;57876;47.792;12.960;2022-12-29T09:27:30;96777.25;;;18.55
70435;BMP280;57876;47.792;12.960;2022-12-29T09:29:54;96783.47;;;18.56
70435;BMP280;57876;47.792;12.960;2022-12-29T09:32:22;96779.44;;;18.57
70435;BMP280;57876;47.792;12.960;2022-12-29T09:34:46;96778.72;;;18.56
70435;BMP280;57876;47.792;12.960;2022-12-29T09:37:11;96772.53;;;18.56
70435;BMP280;57876;47.792;12.960;2022-12-29T09:39:35;96768.50;;;18.57
70435;BMP280;57876;47.792;12.960;2022-12-29T09:42:08;96768.50;;;18.57
70435;BMP280;57876;47.792;12.960;2022-12-29T09:45:11;96765.75;;;18.57
70435;BMP280;57876;47.792;12.960;2022-12-29T09:47:38;96752.75;;;18.57
70435;BMP280;57876;47.792;12.960;2022-12-29T09:50:24;96745.81;;;18.56
70435;BMP280;57876;47.792;12.960;2022-12-29T09:53:00;96742.38;;;18.56
70435;BMP280;57876;47.792;12.960;2022-12-29T09:55:35;96747.00;;;18.53
70435;BMP280;57876;47.792;12.960;2022-12-29T09:58:06;96747.72;;;18.54
70435;BMP280;57876;47.792;12.960;2022-12-29T10:00:58;96740.63;;;18.51
70435;BMP280;57876;47.792;12.960;2022-12-29T10:03:27;96730.97;;;18.50
70435;BMP280;57876;47.792;12.960;2022-12-29T10:11:26;96728.97;;;18.50
70435;BMP280;57876;47.792;12.960;2022-12-29T10:16:32;96718.72;;;18.51
70435;BMP280;57876;47.792;12.960;2022-12-29T10:19:13;96718.16;;;18.52
70435;BMP280;57876;47.792;12.960;2022-12-29T10:22:05;96713.41;;;18.53
70435;BMP280;57876;47.792;12.960;2022-12-29T10:24:34;96704.59;;;18.54
70435;BMP280;57876;47.792;12.960;2022-12-29T10:27:02;96707.34;;;18.54
70435;BMP280;57876;47.792;12.960;2022-12-29T10:29:32;96710.81;;;18.55
70435;BMP280;57876;47.792;12.960;2022-12-29T10:32:13;96699.88;;;18.55
70435;BMP280;57876;47.792;12.960;2022-12-29T10:34:45;96701.28;;;18.56
70435;BMP280;57876;47.792;12.960;2022-12-29T10:37:23;96699.88;;;18.55
70435;BMP280;57876;47.792;12.960;2022-12-29T10:39:52;96693.50;;;18.52
70435;BMP280;57876;47.792;12.960;2022-12-29T10:42:36;96689.75;;;18.57
70435;BMP280;57876;47.792;12.960;2022-12-29T10:45:01;96683.97;;;18.63
70435;BMP280;57876;47.792;12.960;2022-12-29T10:47:29;96686.44;;;18.68
70435;BMP280;57876;47.792;12.960;2022-12-29T10:49:55;96685.41;;;18.73
70435;BMP280;57876;47.792;12.960;2022-12-29T10:52:23;96685.72;;;18.77
70435;BMP280;57876;47.792;12.960;2022-12-29T10:54:59;96676.19;;;18.78
70435;BMP280;57876;47.792;12.960;2022-12-29T10:57:39;96671.56;;;18.80
70435;BMP280;57876;47.792;12.960;2022-12-29T11:00:20;96668.97;;;18.82
70435;BMP280;57876;47.792;12.960;2022-12-29T11:03:02;96677.19;;;18.82
70435;BMP280;57876;47.792;12.960;2022-12-29T11:08:22;96665.22;;;18.87
70435;BMP280;57876;47.792;12.960;2022-12-29T11:11:01;96667.94;;;18.87
70435;BMP280;57876;47.792;12.960;2022-12-29T11:13:29;96667.22;;;18.87
70435;BMP280;57876;47.792;12.960;2022-12-29T11:15:55;96665.78;;;18.86
70435;BMP280;57876;47.792;12.960;2022-12-29T11:18:26;96656.97;;;18.87
70435;BMP280;57876;47.792;12.960;2022-12-29T11:21:02;96652.81;;;18.86
70435;BMP280;57876;47.792;12.960;2022-12-29T11:23:40;96658.28;;;18.86
70435;BMP280;57876;47.792;12.960;2022-12-29T11:28:36;96641.41;;;18.80
70435;BMP280;57876;47.792;12.960;2022-12-29T11:31:04;96641.13;;;18.76
70435;BMP280;57876;47.792;12.960;2022-12-29T11:33:29;96635.50;;;18.74
70435;BMP280;57876;47.792;12.960;2022-12-29T11:35:58;96634.66;;;18.72
70435;BMP280;57876;47.792;12.960;2022-12-29T11:38:26;96635.78;;;18.69
70435;BMP280;57876;47.792;12.960;2022-12-29T11:40:55;96630.19;;;18.67
70435;BMP280;57876;47.792;12.960;2022-12-29T11:43:43;96627.44;;;18.67
70435;BMP280;57876;47.792;12.960;2022-12-29T11:46:20;96630.19;;;18.67
70435;BMP280;57876;47.792;12.960;2022-12-29T11:48:47;96631.63;;;18.68
70435;BMP280;57876;47.792;12.960;2022-12-29T11:51:13;96633.06;;;18.69
70435;BMP280;57876;47.792;12.960;2022-12-29T11:53:47;96636.53;;;18.69
70435;BMP280;57876;47.792;12.960;2022-12-29T11:56:32;96621.53;;;18.70
70435;BMP280;57876;47.792;12.960;2022-12-29T11:58:57;96622.81;;;18.69
70435;BMP280;57876;47.792;12.960;2022-12-29T12:01:36;96624.97;;;18.71
70435;BMP280;57876;47.792;12.960;2022-12-29T12:04:11;96620.25;;;18.71
70435;BMP280;57876;47.792;12.960;2022-12-29T12:06:48;96614.03;;;18.71
70435;BMP280;57876;47.792;12.960;2022-12-29T12:09:21;96609.41;;;18.73
70435;BMP280;57876;47.792;12.960;2022-12-29T12:11:51;96613.47;;;18.72
70435;BMP280;57876;47.792;12.960;2022-12-29T12:14:22;96622.38;;;18.73
70435;BMP280;57876;47.792;12.960;2022-12-29T12:16:51;96614.88;;;18.73
70435;BMP280;57876;47.792;12.960;2022-12-29T12:19:33;96611.41;;;18.73
70435;BMP280;57876;47.792;12.960;2022-12-29T12:22:03;96607.38;;;18.74
70435;BMP280;57876;47.792;12.960;2022-12-29T12:24:37;96605.34;;;18.74
70435;BMP280;57876;47.792;12.960;2022-12-29T12:35:14;96606.53;;;18.71
70435;BMP280;57876;47.792;12.960;2022-12-29T12:38:08;96608.66;;;18.73
70435;BMP280;57876;47.792;12.960;2022-12-29T12:51:30;96582.41;;;18.79
70435;BMP280;57876;47.792;12.960;2022-12-29T12:57:17;96563.22;;;18.79
70435;BMP280;57876;47.792;12.960;2022-12-29T12:59:52;96572.88;;;18.80
70435;BMP280;57876;47.792;12.960;2022-12-29T13:08:03;96572.31;;;18.82
70435;BMP280;57876;47.792;12.960;2022-12-29T13:16:10;96560.47;;;18.79
70435;BMP280;57876;47.792;12.960;2022-12-29T13:18:45;96562.50;;;18.79
70435;BMP280;57876;47.792;12.960;2022-12-29T13:26:32;96559.03;;;18.78
70435;BMP280;57876;47.792;12.960;2022-12-29T13:29:23;96564.41;;;18.76
70435;BMP280;57876;47.792;12.960;2022-12-29T13:34:53;96561.66;;;18.76
70435;BMP280;57876;47.792;12.960;2022-12-29T13:37:26;96569.16;;;18.76
70435;BMP280;57876;47.792;12.960;2022-12-29T13:39:55;96565.00;;;18.75
70435;BMP280;57876;47.792;12.960;2022-12-29T13:42:21;96580.00;;;18.74
70435;BMP280;57876;47.792;12.960;2022-12-29T13:44:49;96579.25;;;18.73
70435;BMP280;57876;47.792;12.960;2022-12-29T13:47:27;96578.50;;;18.73
70435;BMP280;57876;47.792;12.960;2022-12-29T13:49:56;96586.19;;;18.74
70435;BMP280;57876;47.792;12.960;2022-12-29T13:52:35;96593.09;;;18.75
70435;BMP280;57876;47.792;12.960;2022-12-29T14:00:46;96594.66;;;18.78
70435;BMP280;57876;47.792;12.960;2022-12-29T14:03:27;96598.28;;;18.81
70435;BMP280;57876;47.792;12.960;2022-12-29T14:08:44;96600.59;;;18.84
70435;BMP280;57876;47.792;12.960;2022-12-29T14:11:10;96608.09;;;18.84
70435;BMP280;57876;47.792;12.960;2022-12-29T14:13:39;96601.16;;;18.83
70435;BMP280;57876;47.792;12.960;2022-12-29T14:16:05;96601.91;;;18.83
70435;BMP280;57876;47.792;12.960;2022-12-29T14:18:32;96600.44;;;18.82
70435;BMP280;57876;47.792;12.960;2022-12-29T14:20:59;96594.81;;;18.80
70435;BMP280;57876;47.792;12.960;2022-12-29T14:23:46;96590.47;;;18.77
70435;BMP280;57876;47.792;12.960;2022-12-29T14:28:52;96600.63;;;18.75
70435;BMP280;57876;47.792;12.960;2022-12-29T14:36:58;96605.50;;;18.76
70435;BMP280;57876;47.792;12.960;2022-12-29T14:39:44;96599.31;;;18.76
70435;BMP280;57876;47.792;12.960;2022-12-29T14:44:33;96600.03;;;18.76
70435;BMP280;57876;47.792;12.960;2022-12-29T14:47:01;96597.88;;;18.75
70435;BMP280;57876;47.792;12.960;2022-12-29T14:49:39;96603.34;;;18.75
70435;BMP280;57876;47.792;12.960;2022-12-29T14:52:13;96601.19;;;18.73
70435;BMP280;57876;47.792;12.960;2022-12-29T14:54:44;96603.91;;;18.73
70435;BMP280;57876;47.792;12.960;2022-12-29T14:57:26;96599.31;;;18.76
70435;BMP280;57876;47.792;12.960;2022-12-29T15:00:00;96595.84;;;18.75
70435;BMP280;57876;47.792;12.960;2022-12-29T15:02:32;96609.00;;;18.77
70435;BMP280;57876;47.792;12.960;2022-12-29T15:05:00;96605.50;;;18.76
70435;BMP280;57876;47.792;12.960;2022-12-29T15:07:26;96598.03;;;18.77
70435;BMP280;57876;47.792;12.960;2022-12-29T15:10:03;96620.06;;;18.79
70435;BMP280;57876;47.792;12.960;2022-12-29T15:12:35;96609.66;;;18.77
70435;BMP280;57876;47.792;12.960;2022-12-29T15:15:01;96608.38;;;18.78
70435;BMP280;57876;47.792;12.960;2022-12-29T15:17:28;96603.63;;;18.79
70435;BMP280;57876;47.792;12.960;2022-12-29T15:19:55;96608.38;;;18.78
70435;BMP280;57876;47.792;12.960;2022-12-29T15:22:21;96609.25;;;18.81
70435;BMP280;57876;47.792;12.960;2022-12-29T15:24:45;96606.50;;;18.81
70435;BMP280;57876;47.792;12.960;2022-12-29T15:27:14;96608.53;;;18.80
70435;BMP280;57876;47.792;12.960;2022-12-29T15:29:41;96603.78;;;18.81
70435;BMP280;57876;47.792;12.960;2022-12-29T15:34:39;96595.56;;;18.81
70435;BMP280;57876;47.792;12.960;2022-12-29T15:37:07;96602.44;;;18.82
70435;BMP280;57876;47.792;12.960;2022-12-29T15:39:32;96607.38;;;18.83
70435;BMP280;57876;47.792;12.960;2022-12-29T15:42:02;96601.91;;;18.83
70435;BMP280;57876;47.792;12.960;2022-12-29T15:44:37;96605.34;;;18.84
70435;BMP280;57876;47.792;12.960;2022-12-29T15:47:08;96605.34;;;18.84
70435;BMP280;57876;47.792;12.960;2022-12-29T15:49:35;96595.66;;;18.83
70435;BMP280;57876;47.792;12.960;2022-12-29T15:52:06;96600.28;;;18.80
70435;BMP280;57876;47.792;12.960;2022-12-29T15:54:31;96597.56;;;18.80
70435;BMP280;57876;47.792;12.960;2022-12-29T15:56:55;96597.56;;;18.80
70435;BMP280;57876;47.792;12.960;2022-12-29T15:59:31;96586.59;;;18.80